Time;durP1;ratioP1;P1;durP2;ratioP2;P2;SDS_P1;SDS_P2;PMS_P1;PMS_P2;Temp;Humidity;BMP_temperature;BMP_pressure;BME280_temperature;BME280_humidity;BME280_pressure;Samples;Min_cycle;Max_cycle;Signal;HPM_P1;HPM_P2
2021/10/25 00:00:01;;;;;;;14.50;10.27;;;;;;;;;;5019081;28;20208;-65
2021/10/25 00:02:29;;;;;;;14.13;10.40;;;;;;;;;;5019087;28;20584;-65
2021/10/25 00:04:59;;;;;;;17.10;10.60;;;;;;;;;;5018903;28;20208;-65
2021/10/25 00:07:27;;;;;;;15.27;10.27;;;;;;;;;;5019223;28;20230;-65
2021/10/25 00:09:55;;;;;;;17.03;9.87;;;;;;;;;;5019160;28;20316;-65
2021/10/25 00:12:23;;;;;;;15.00;9.63;;;;;;;;;;5019401;28;20208;-65
2021/10/25 00:14:51;;;;;;;13.97;9.97;;;;;;;;;;5019196;28;20227;-65
2021/10/25 00:17:19;;;;;;;18.83;10.50;;;;;;;;;;5018983;28;20215;-65
2021/10/25 00:19:46;;;;;;;17.93;10.10;;;;;;;;;;5019139;28;20270;-65
2021/10/25 00:22:16;;;;;;;17.83;10.67;;;;;;;;;;5018579;28;20243;-65
2021/10/25 00:24:44;;;;;;;19.90;10.43;;;;;;;;;;5010011;28;20201;-65
2021/10/25 00:27:13;;;;;;;15.53;10.60;;;;;;;;;;5017816;28;20224;-65
2021/10/25 00:29:41;;;;;;;17.80;10.33;;;;;;;;;;5018639;28;20263;-65
2021/10/25 00:32:09;;;;;;;18.63;10.87;;;;;;;;;;5018479;28;20290;-65
2021/10/25 00:34:37;;;;;;;21.23;11.80;;;;;;;;;;5018567;28;20208;-65
2021/10/25 00:37:05;;;;;;;18.90;10.60;;;;;;;;;;5018545;28;20253;-65
2021/10/25 00:39:34;;;;;;;17.57;11.27;;;;;;;;;;5018218;28;20227;-65
2021/10/25 00:42:02;;;;;;;21.90;11.27;;;;;;;;;;5018832;28;20683;-65
2021/10/25 00:44:31;;;;;;;18.27;11.63;;;;;;;;;;5018682;28;20218;-65
2021/10/25 00:46:59;;;;;;;15.77;10.73;;;;;;;;;;5018190;28;20224;-65
2021/10/25 00:49:28;;;;;;;18.53;10.33;;;;;;;;;;5018561;28;20228;-65
2021/10/25 00:51:56;;;;;;;18.93;10.97;;;;;;;;;;5018289;28;20208;-65
2021/10/25 00:54:23;;;;;;;14.10;9.67;;;;;;;;;;5018308;28;20639;-65
2021/10/25 00:56:53;;;;;;;17.70;11.10;;;;;;;;;;5018182;28;20685;-65
2021/10/25 00:59:21;;;;;;;18.20;11.50;;;;;;;;;;5018265;28;20238;-65
2021/10/25 01:01:49;;;;;;;15.47;10.80;;;;;;;;;;5018159;28;20208;-65
2021/10/25 01:04:20;;;;;;;15.67;10.10;;;;;;;;;;5018204;28;20215;-65
2021/10/25 01:06:48;;;;;;;16.50;11.63;;;;;;;;;;5017524;28;20335;-65
2021/10/25 01:09:17;;;;;;;16.13;10.50;;;;;;;;;;5017883;28;20228;-65
2021/10/25 01:11:45;;;;;;;19.47;10.33;;;;;;;;;;5017949;28;20595;-65
2021/10/25 01:14:15;;;;;;;17.53;10.57;;;;;;;;;;5017969;28;20262;-65
2021/10/25 01:16:43;;;;;;;18.57;10.53;;;;;;;;;;5018007;28;20222;-65
2021/10/25 01:19:11;;;;;;;18.40;10.27;;;;;;;;;;5018100;28;20247;-65
2021/10/25 01:21:40;;;;;;;20.10;10.77;;;;;;;;;;5017541;28;20243;-65
2021/10/25 01:24:08;;;;;;;18.50;10.80;;;;;;;;;;5018100;28;20278;-65
2021/10/25 01:26:36;;;;;;;17.93;11.23;;;;;;;;;;5017861;28;20200;-65
2021/10/25 01:29:06;;;;;;;18.40;11.70;;;;;;;;;;5017971;28;20252;-65
2021/10/25 01:31:34;;;;;;;14.17;10.30;;;;;;;;;;5017499;28;20208;-65
2021/10/25 01:34:02;;;;;;;18.13;10.77;;;;;;;;;;5018068;28;20219;-65
2021/10/25 01:36:30;;;;;;;13.50;10.17;;;;;;;;;;5017960;28;20295;-65
2021/10/25 01:38:59;;;;;;;13.33;9.70;;;;;;;;;;5017729;28;20230;-65
2021/10/25 01:41:27;;;;;;;15.10;9.70;;;;;;;;;;5017805;28;20216;-65
2021/10/25 01:43:55;;;;;;;14.00;9.53;;;;;;;;;;5017673;28;20212;-65
2021/10/25 01:46:23;;;;;;;15.97;10.27;;;;;;;;;;5017547;28;20208;-65
2021/10/25 01:48:51;;;;;;;16.23;10.30;;;;;;;;;;5017470;28;20228;-65
2021/10/25 01:51:19;;;;;;;15.43;9.57;;;;;;;;;;5017463;28;20228;-65
2021/10/25 01:53:47;;;;;;;13.23;9.80;;;;;;;;;;5017490;28;20238;-65
2021/10/25 01:56:17;;;;;;;12.93;9.47;;;;;;;;;;5017518;28;20219;-65
2021/10/25 01:58:45;;;;;;;15.93;10.57;;;;;;;;;;5017124;28;20220;-65
2021/10/25 02:01:16;;;;;;;14.67;10.20;;;;;;;;;;5017763;28;20208;-65
2021/10/25 02:03:44;;;;;;;15.10;9.80;;;;;;;;;;5017406;28;20208;-65
2021/10/25 02:06:12;;;;;;;18.93;10.87;;;;;;;;;;5017568;28;20208;-65
2021/10/25 02:08:40;;;;;;;14.70;9.83;;;;;;;;;;5017566;28;20690;-65
2021/10/25 02:11:08;;;;;;;16.40;10.67;;;;;;;;;;5017712;28;20291;-64
2021/10/25 02:13:37;;;;;;;13.27;10.00;;;;;;;;;;5017553;28;20215;-65
2021/10/25 02:16:06;;;;;;;16.07;9.57;;;;;;;;;;5017675;28;20215;-65
2021/10/25 02:18:34;;;;;;;16.20;10.10;;;;;;;;;;5016985;28;20229;-65
2021/10/25 02:21:02;;;;;;;14.03;9.83;;;;;;;;;;5024886;28;20994;-65
2021/10/25 02:23:30;;;;;;;13.13;9.80;;;;;;;;;;5029263;28;20200;-65
2021/10/25 02:25:58;;;;;;;15.30;9.70;;;;;;;;;;5027150;28;20203;-65
2021/10/25 02:28:26;;;;;;;12.77;9.27;;;;;;;;;;5028682;28;20306;-65
2021/10/25 02:30:56;;;;;;;16.30;9.97;;;;;;;;;;5027026;28;20206;-65
2021/10/25 02:33:24;;;;;;;15.80;9.37;;;;;;;;;;5026996;28;20279;-65
2021/10/25 02:35:52;;;;;;;15.83;9.30;;;;;;;;;;5028204;28;20210;-65
2021/10/25 02:38:20;;;;;;;13.50;9.17;;;;;;;;;;5028805;28;20230;-65
2021/10/25 02:40:48;;;;;;;16.50;9.93;;;;;;;;;;5030857;28;20306;-65
2021/10/25 02:43:16;;;;;;;13.60;9.73;;;;;;;;;;5030130;28;20214;-65
2021/10/25 02:45:44;;;;;;;14.00;9.70;;;;;;;;;;5026917;28;20683;-65
2021/10/25 02:48:14;;;;;;;16.03;9.23;;;;;;;;;;5022557;28;20234;-65
2021/10/25 02:50:43;;;;;;;13.07;9.93;;;;;;;;;;5020266;28;20231;-65
2021/10/25 02:53:12;;;;;;;15.90;9.40;;;;;;;;;;5020626;28;20582;-65
2021/10/25 02:55:40;;;;;;;14.30;10.27;;;;;;;;;;5020654;28;20212;-65
2021/10/25 02:58:08;;;;;;;13.23;8.80;;;;;;;;;;5020429;28;20224;-65
2021/10/25 03:00:36;;;;;;;12.20;9.43;;;;;;;;;;5020178;28;20587;-64
2021/10/25 03:03:04;;;;;;;16.03;9.77;;;;;;;;;;5020418;28;20208;-65
2021/10/25 03:05:34;;;;;;;15.27;10.27;;;;;;;;;;5020104;28;20571;-65
2021/10/25 03:08:02;;;;;;;16.80;10.03;;;;;;;;;;5020058;28;20232;-65
2021/10/25 03:10:30;;;;;;;13.13;9.87;;;;;;;;;;5020371;28;20208;-65
2021/10/25 03:12:58;;;;;;;17.47;8.77;;;;;;;;;;5020441;28;20208;-65
2021/10/25 03:15:26;;;;;;;14.77;9.67;;;;;;;;;;5020362;28;20210;-64
2021/10/25 03:17:54;;;;;;;17.77;9.77;;;;;;;;;;5019790;28;20209;-65
2021/10/25 03:20:22;;;;;;;15.67;10.37;;;;;;;;;;5020022;28;20689;-65
2021/10/25 03:22:51;;;;;;;16.63;9.53;;;;;;;;;;5019858;28;20242;-65
2021/10/25 03:25:19;;;;;;;16.50;10.47;;;;;;;;;;5019808;28;20216;-65
2021/10/25 03:27:48;;;;;;;12.90;9.87;;;;;;;;;;5019915;28;20222;-65
2021/10/25 03:30:18;;;;;;;14.73;9.93;;;;;;;;;;5019768;28;20211;-65
2021/10/25 03:32:46;;;;;;;12.87;9.30;;;;;;;;;;5020044;28;20214;-65
2021/10/25 03:35:14;;;;;;;13.20;9.80;;;;;;;;;;5019853;28;20208;-65
2021/10/25 03:37:42;;;;;;;13.40;8.97;;;;;;;;;;5019927;28;20214;-65
2021/10/25 03:40:12;;;;;;;16.07;10.10;;;;;;;;;;5019807;28;20265;-64
2021/10/25 03:42:42;;;;;;;13.13;9.37;;;;;;;;;;5019690;28;20211;-64
2021/10/25 03:45:18;;;;;;;16.23;9.70;;;;;;;;;;5019789;28;20208;-65
2021/10/25 03:47:50;;;;;;;14.90;9.13;;;;;;;;;;5019488;28;20214;-65
2021/10/25 03:50:21;;;;;;;12.43;8.57;;;;;;;;;;5019482;28;20208;-65
2021/10/25 03:52:52;;;;;;;12.30;9.33;;;;;;;;;;5019410;28;20579;-65
2021/10/25 03:55:27;;;;;;;13.57;9.57;;;;;;;;;;5019601;28;20214;-65
2021/10/25 04:25:49;;;;;;;13.30;9.00;;;;;;;;;;5018108;28;20214;-65
2021/10/25 04:28:21;;;;;;;14.47;9.27;;;;;;;;;;5015669;28;20224;-65
2021/10/25 04:30:54;;;;;;;12.40;7.40;;;;;;;;;;5019040;28;20222;-65
2021/10/25 04:33:23;;;;;;;12.97;8.77;;;;;;;;;;5018530;28;20251;-64
2021/10/25 04:35:51;;;;;;;18.63;8.57;;;;;;;;;;5018545;28;20296;-64
2021/10/25 04:38:19;;;;;;;16.70;9.13;;;;;;;;;;5018444;28;20231;-64
2021/10/25 04:40:47;;;;;;;14.10;8.37;;;;;;;;;;5018668;28;20235;-65
2021/10/25 04:43:16;;;;;;;13.43;8.23;;;;;;;;;;5018160;28;20210;-65
2021/10/25 04:45:46;;;;;;;14.43;8.77;;;;;;;;;;5018718;28;20215;-64
2021/10/25 04:48:15;;;;;;;11.03;8.33;;;;;;;;;;5018398;28;20238;-65
2021/10/25 04:50:43;;;;;;;12.93;8.77;;;;;;;;;;5018289;28;20582;-64
2021/10/25 04:53:11;;;;;;;12.60;8.47;;;;;;;;;;5018210;28;20207;-64
2021/10/25 04:55:38;;;;;;;11.40;8.07;;;;;;;;;;5018207;28;20208;-64
2021/10/25 04:58:06;;;;;;;12.60;8.77;;;;;;;;;;5018217;28;20763;-64
2021/10/25 05:00:34;;;;;;;13.27;8.20;;;;;;;;;;5018064;28;20577;-64
2021/10/25 05:03:06;;;;;;;15.17;8.73;;;;;;;;;;5017846;28;20212;-64
2021/10/25 05:05:34;;;;;;;14.10;10.07;;;;;;;;;;5017832;28;20222;-64
2021/10/25 05:08:02;;;;;;;15.33;9.63;;;;;;;;;;5017994;28;20231;-64
2021/10/25 05:10:30;;;;;;;13.33;8.87;;;;;;;;;;5017788;28;20713;-65
2021/10/25 05:13:00;;;;;;;14.70;8.53;;;;;;;;;;5015948;28;20210;-64
2021/10/25 05:15:28;;;;;;;11.87;8.10;;;;;;;;;;5017722;28;20271;-64
2021/10/25 05:18:01;;;;;;;9.57;8.57;;;;;;;;;;5017640;28;20228;-65
2021/10/25 05:20:30;;;;;;;13.57;9.20;;;;;;;;;;5017603;28;20283;-64
2021/10/25 05:22:58;;;;;;;12.37;8.30;;;;;;;;;;5017461;28;20242;-64
2021/10/25 05:25:28;;;;;;;13.10;9.03;;;;;;;;;;5017590;28;20214;-64
2021/10/25 05:27:55;;;;;;;13.20;8.10;;;;;;;;;;5017557;28;20243;-64
2021/10/25 05:30:23;;;;;;;15.57;8.73;;;;;;;;;;5017303;28;20590;-64
2021/10/25 05:32:51;;;;;;;41.63;22.90;;;;;;;;;;5007901;28;20214;-64
2021/10/25 05:35:19;;;;;;;17.97;10.03;;;;;;;;;;5017616;28;20211;-64
2021/10/25 05:37:49;;;;;;;12.80;8.97;;;;;;;;;;5017441;28;20271;-65
2021/10/25 05:40:17;;;;;;;11.60;8.27;;;;;;;;;;5017494;28;20211;-64
2021/10/25 05:42:45;;;;;;;20.23;8.67;;;;;;;;;;5017463;28;20211;-65
2021/10/25 05:45:13;;;;;;;13.87;8.00;;;;;;;;;;5017606;28;20211;-64
2021/10/25 05:47:41;;;;;;;14.37;8.20;;;;;;;;;;5017200;28;20208;-64
2021/10/25 05:50:09;;;;;;;14.37;7.97;;;;;;;;;;5017116;28;20261;-64
2021/10/25 05:52:37;;;;;;;20.90;8.37;;;;;;;;;;5017187;28;20637;-64
2021/10/25 05:55:08;;;;;;;11.60;7.93;;;;;;;;;;5020484;28;20575;-64
2021/10/25 05:57:36;;;;;;;10.67;7.67;;;;;;;;;;5020980;28;20200;-64
2021/10/25 06:00:05;;;;;;;12.23;7.83;;;;;;;;;;5021062;28;20211;-64
2021/10/25 06:02:35;;;;;;;10.20;7.03;;;;;;;;;;5022974;28;20226;-64
2021/10/25 06:05:06;;;;;;;12.00;7.97;;;;;;;;;;5027669;28;20286;-64
2021/10/25 06:07:34;;;;;;;9.83;7.43;;;;;;;;;;5027129;28;20297;-64
2021/10/25 06:10:02;;;;;;;11.00;7.53;;;;;;;;;;5028969;28;20306;-64
2021/10/25 06:12:38;;;;;;;12.10;7.30;;;;;;;;;;5030876;28;20211;-64
2021/10/25 06:15:10;;;;;;;10.10;7.37;;;;;;;;;;5029579;28;20214;-64
2021/10/25 06:17:50;;;;;;;13.83;7.77;;;;;;;;;;5024624;28;20652;-64
2021/10/25 06:20:18;;;;;;;10.97;7.70;;;;;;;;;;5020655;28;20204;-63
2021/10/25 06:22:46;;;;;;;12.77;7.80;;;;;;;;;;5017084;28;20609;-64
2021/10/25 06:25:15;;;;;;;13.93;7.10;;;;;;;;;;5020468;28;20207;-64
2021/10/25 06:27:46;;;;;;;11.13;7.43;;;;;;;;;;5020390;28;20200;-64
2021/10/25 06:30:15;;;;;;;12.80;7.63;;;;;;;;;;5014591;28;20723;-64
2021/10/25 06:32:43;;;;;;;12.40;7.70;;;;;;;;;;5019668;28;20211;-64
2021/10/25 06:35:14;;;;;;;10.50;7.53;;;;;;;;;;5020280;28;20200;-65
2021/10/25 06:37:53;;;;;;;11.00;7.43;;;;;;;;;;5019689;28;20209;-64
2021/10/25 06:40:23;;;;;;;18.47;7.67;;;;;;;;;;5019408;28;20207;-63
2021/10/25 06:42:52;;;;;;;11.17;7.47;;;;;;;;;;5017834;28;20196;-64
2021/10/25 06:45:21;;;;;;;13.97;8.00;;;;;;;;;;5019816;28;20330;-63
2021/10/25 06:47:50;;;;;;;13.17;8.00;;;;;;;;;;5019796;28;20291;-64
2021/10/25 06:50:19;;;;;;;11.43;8.00;;;;;;;;;;5019369;28;20228;-65
2021/10/25 06:52:48;;;;;;;12.83;7.03;;;;;;;;;;5019946;28;20207;-65
2021/10/25 06:55:16;;;;;;;13.33;7.83;;;;;;;;;;5019866;28;20211;-64
2021/10/25 06:57:44;;;;;;;11.87;7.87;;;;;;;;;;5019987;28;20727;-64
2021/10/25 07:00:14;;;;;;;15.17;8.50;;;;;;;;;;5019441;28;20562;-65
2021/10/25 07:02:42;;;;;;;13.47;8.97;;;;;;;;;;5017974;28;20214;-65
2021/10/25 07:05:11;;;;;;;15.47;9.17;;;;;;;;;;5007631;28;20587;-66
2021/10/25 07:07:38;;;;;;;15.73;8.37;;;;;;;;;;5020058;28;20208;-65
2021/10/25 07:10:08;;;;;;;16.30;8.17;;;;;;;;;;5020044;28;20224;-65
2021/10/25 07:12:37;;;;;;;11.70;8.13;;;;;;;;;;5019626;28;20667;-64
2021/10/25 07:15:05;;;;;;;12.07;8.37;;;;;;;;;;5019727;28;20216;-64
2021/10/25 07:17:38;;;;;;;15.77;9.10;;;;;;;;;;5019458;28;20659;-65
2021/10/25 07:20:21;;;;;;;17.37;9.60;;;;;;;;;;5019285;28;20200;-65
2021/10/25 08:02:15;;;;;;;16.17;8.00;;;;;;;;;;5016890;28;20201;-63
2021/10/25 08:07:35;;;;;;;14.37;8.27;;;;;;;;;;5017421;28;20637;-64
2021/10/25 08:10:07;;;;;;;12.17;8.90;;;;;;;;;;5017986;28;20203;-64
2021/10/25 08:12:39;;;;;;;15.23;8.63;;;;;;;;;;5014794;28;20569;-63
2021/10/25 08:15:10;;;;;;;12.27;8.23;;;;;;;;;;5018461;28;20201;-63
2021/10/25 08:17:44;;;;;;;11.63;8.13;;;;;;;;;;5016192;28;20560;-63
2021/10/25 08:20:12;;;;;;;10.67;8.17;;;;;;;;;;5017945;28;20201;-63
2021/10/25 08:22:42;;;;;;;14.83;9.00;;;;;;;;;;5017747;28;20228;-63
2021/10/25 08:25:10;;;;;;;16.73;9.30;;;;;;;;;;5017544;28;20226;-63
2021/10/25 08:27:39;;;;;;;12.23;8.93;;;;;;;;;;5018278;28;20200;-63
2021/10/25 08:30:07;;;;;;;10.43;7.93;;;;;;;;;;5018156;28;20200;-63
2021/10/25 08:32:57;;;;;;;13.43;8.37;;;;;;;;;;5015344;28;20556;-63
2021/10/25 08:35:34;;;;;;;13.30;8.67;;;;;;;;;;5016018;28;20200;-64
2021/10/25 08:40:50;;;;;;;16.80;8.77;;;;;;;;;;5016797;28;20200;-64
2021/10/25 08:43:18;;;;;;;13.40;8.13;;;;;;;;;;5015246;28;20201;-63
2021/10/25 08:45:50;;;;;;;13.03;8.73;;;;;;;;;;5017727;28;20208;-64
2021/10/25 08:48:20;;;;;;;14.87;8.73;;;;;;;;;;5016390;28;20254;-64
2021/10/25 08:50:49;;;;;;;11.60;8.47;;;;;;;;;;5017729;28;20226;-64
2021/10/25 08:53:19;;;;;;;12.77;8.73;;;;;;;;;;5017619;28;20204;-64
2021/10/25 08:55:50;;;;;;;13.93;8.77;;;;;;;;;;5017866;28;20200;-64
2021/10/25 08:58:19;;;;;;;14.37;8.90;;;;;;;;;;5017436;28;20230;-64
2021/10/25 09:00:49;;;;;;;15.00;8.57;;;;;;;;;;5015543;28;20254;-64
2021/10/25 09:03:20;;;;;;;16.93;8.60;;;;;;;;;;5016653;28;20612;-64
2021/10/25 09:05:55;;;;;;;16.03;8.53;;;;;;;;;;5017429;28;20555;-63
2021/10/25 09:08:25;;;;;;;16.30;9.30;;;;;;;;;;5014860;28;20219;-64
2021/10/25 09:10:54;;;;;;;20.03;7.83;;;;;;;;;;5017099;28;20224;-64
2021/10/25 09:13:23;;;;;;;14.13;9.00;;;;;;;;;;5017354;28;20200;-64
2021/10/25 09:15:52;;;;;;;15.07;8.97;;;;;;;;;;5017350;28;20286;-64
2021/10/25 09:18:21;;;;;;;14.50;8.60;;;;;;;;;;5014908;28;20224;-63
2021/10/25 09:20:50;;;;;;;16.43;8.73;;;;;;;;;;5017589;28;20218;-64
2021/10/25 09:23:19;;;;;;;15.50;9.00;;;;;;;;;;5017003;28;20583;-64
2021/10/25 09:25:53;;;;;;;13.33;7.83;;;;;;;;;;5014454;28;20200;-63
2021/10/25 09:28:25;;;;;;;14.17;8.27;;;;;;;;;;5016632;28;20223;-64
2021/10/25 09:30:54;;;;;;;13.90;8.00;;;;;;;;;;5016971;28;20204;-64
2021/10/25 09:33:23;;;;;;;11.53;7.43;;;;;;;;;;5017673;28;20214;-65
2021/10/25 09:35:59;;;;;;;14.23;7.87;;;;;;;;;;5017426;28;20212;-63
2021/10/25 09:38:37;;;;;;;17.50;7.80;;;;;;;;;;5017609;28;20227;-63
2021/10/25 09:49:33;;;;;;;11.30;6.90;;;;;;;;;;5017635;28;20228;-64
2021/10/25 09:52:03;;;;;;;12.60;7.47;;;;;;;;;;5017432;28;20238;-64
2021/10/25 09:54:33;;;;;;;12.57;7.67;;;;;;;;;;5017345;28;20207;-64
2021/10/25 09:57:06;;;;;;;14.40;7.23;;;;;;;;;;5017557;28;20208;-64
2021/10/25 09:59:47;;;;;;;12.67;7.20;;;;;;;;;;5017550;28;20322;-64
2021/10/25 10:02:15;;;;;;;10.87;6.77;;;;;;;;;;5016364;28;20565;-63
2021/10/25 10:04:45;;;;;;;15.43;7.30;;;;;;;;;;5017070;28;20637;-64
2021/10/25 10:07:16;;;;;;;9.13;6.50;;;;;;;;;;5017488;28;20212;-63
2021/10/25 10:09:45;;;;;;;10.63;6.63;;;;;;;;;;5017398;28;20232;-64
2021/10/25 10:12:18;;;;;;;11.43;6.27;;;;;;;;;;5016861;28;20262;-63
2021/10/25 10:14:48;;;;;;;10.50;6.47;;;;;;;;;;5017616;28;20208;-63
2021/10/25 10:17:18;;;;;;;9.40;5.70;;;;;;;;;;5016887;28;20572;-62
2021/10/25 10:19:47;;;;;;;9.73;5.77;;;;;;;;;;5017101;28;20318;-62
2021/10/25 10:22:16;;;;;;;9.80;6.20;;;;;;;;;;5017123;28;20723;-62
2021/10/25 10:24:47;;;;;;;9.27;6.77;;;;;;;;;;5014778;28;20216;-62
2021/10/25 10:27:20;;;;;;;11.40;6.37;;;;;;;;;;5009554;28;20252;-62
2021/10/25 10:29:50;;;;;;;7.93;5.57;;;;;;;;;;5016972;28;20224;-62
2021/10/25 10:32:19;;;;;;;12.33;6.00;;;;;;;;;;5016978;28;20695;-62
2021/10/25 10:34:48;;;;;;;9.80;6.17;;;;;;;;;;5016988;28;20655;-62
2021/10/25 10:37:21;;;;;;;10.63;6.27;;;;;;;;;;5016909;28;20592;-64
2021/10/25 10:40:05;;;;;;;10.00;5.67;;;;;;;;;;5017403;28;20238;-63
2021/10/25 10:42:34;;;;;;;9.83;5.77;;;;;;;;;;5020805;28;20267;-64
2021/10/25 10:45:04;;;;;;;11.87;5.87;;;;;;;;;;5020775;28;20208;-63
2021/10/25 10:47:38;;;;;;;12.80;6.77;;;;;;;;;;5020231;28;20723;-64
2021/10/25 10:50:08;;;;;;;9.33;6.00;;;;;;;;;;5020172;28;20208;-64
2021/10/25 10:52:38;;;;;;;7.00;4.73;;;;;;;;;;5020195;28;20236;-63
2021/10/25 10:55:19;;;;;;;7.97;5.30;;;;;;;;;;5020441;28;20212;-63
2021/10/25 11:00:40;;;;;;;9.70;5.13;;;;;;;;;;4994952;28;20213;-63
2021/10/25 11:03:18;;;;;;;7.17;5.20;;;;;;;;;;5020308;28;20210;-61
2021/10/25 11:05:47;;;;;;;8.10;4.77;;;;;;;;;;5020269;28;20212;-63
2021/10/25 11:08:18;;;;;;;6.70;4.80;;;;;;;;;;5019882;28;20239;-63
2021/10/25 11:10:58;;;;;;;8.67;4.90;;;;;;;;;;5020321;28;20214;-63
2021/10/25 11:13:30;;;;;;;12.10;5.47;;;;;;;;;;5019878;28;20227;-63
2021/10/25 11:16:01;;;;;;;11.23;5.73;;;;;;;;;;5019627;28;20214;-63
2021/10/25 11:18:30;;;;;;;7.77;4.73;;;;;;;;;;5020207;28;20691;-63
2021/10/25 11:21:19;;;;;;;7.50;4.77;;;;;;;;;;5019505;28;20713;-63
2021/10/25 11:23:50;;;;;;;6.90;5.13;;;;;;;;;;5019757;28;20204;-63
2021/10/25 11:26:21;;;;;;;12.30;7.63;;;;;;;;;;5018458;28;20296;-63
2021/10/25 11:29:10;;;;;;;7.73;5.37;;;;;;;;;;5017283;28;20279;-63
2021/10/25 11:31:40;;;;;;;5.90;4.27;;;;;;;;;;5017532;28;20307;-63
2021/10/25 11:34:15;;;;;;;7.50;4.93;;;;;;;;;;5018918;28;20254;-63
2021/10/25 11:36:50;;;;;;;9.97;4.90;;;;;;;;;;5019164;28;20273;-63
2021/10/25 11:39:24;;;;;;;5.13;4.43;;;;;;;;;;5019272;28;20234;-63
2021/10/25 11:41:52;;;;;;;6.93;4.53;;;;;;;;;;5018789;28;20565;-63
2021/10/25 11:44:20;;;;;;;8.77;5.03;;;;;;;;;;5019176;28;20594;-63
2021/10/25 11:46:49;;;;;;;8.20;3.93;;;;;;;;;;5018532;28;20735;-63
2021/10/25 11:49:23;;;;;;;7.40;4.67;;;;;;;;;;5014150;28;20247;-63
2021/10/25 11:51:58;;;;;;;6.53;4.17;;;;;;;;;;5014863;28;20279;-63
2021/10/25 11:54:26;;;;;;;6.03;4.10;;;;;;;;;;5018951;28;20204;-63
2021/10/25 11:56:58;;;;;;;6.83;4.23;;;;;;;;;;5019003;28;20571;-63
2021/10/25 11:59:26;;;;;;;5.90;3.67;;;;;;;;;;5019181;28;20315;-63
2021/10/25 12:01:57;;;;;;;7.17;4.30;;;;;;;;;;5018927;28;20210;-63
2021/10/25 12:04:25;;;;;;;5.97;3.97;;;;;;;;;;5019084;28;20215;-63
2021/10/25 12:06:55;;;;;;;8.57;4.23;;;;;;;;;;5019056;28;20214;-63
2021/10/25 12:09:29;;;;;;;6.43;4.77;;;;;;;;;;5019056;28;20224;-63
2021/10/25 12:12:03;;;;;;;8.50;4.13;;;;;;;;;;5018637;28;20294;-63
2021/10/25 12:14:33;;;;;;;5.37;4.10;;;;;;;;;;5018942;28;20208;-63
2021/10/25 12:17:03;;;;;;;7.33;4.50;;;;;;;;;;5018830;28;20223;-63
2021/10/25 12:19:31;;;;;;;7.83;4.40;;;;;;;;;;5018725;28;20228;-63
2021/10/25 12:22:08;;;;;;;9.20;4.07;;;;;;;;;;5018382;28;20265;-63
2021/10/25 12:24:40;;;;;;;10.23;4.17;;;;;;;;;;5018671;28;20207;-63
2021/10/25 12:27:09;;;;;;;6.97;3.80;;;;;;;;;;5018521;28;20215;-63
2021/10/25 12:29:37;;;;;;;7.70;3.63;;;;;;;;;;5018292;28;20224;-63
2021/10/25 12:32:11;;;;;;;6.20;3.60;;;;;;;;;;5007961;28;20209;-63
2021/10/25 12:34:52;;;;;;;5.10;3.47;;;;;;;;;;5018421;28;20203;-63
2021/10/25 12:37:21;;;;;;;6.57;4.43;;;;;;;;;;5018421;28;20693;-63
2021/10/25 12:39:52;;;;;;;6.57;3.90;;;;;;;;;;5018314;28;20224;-63
2021/10/25 12:42:20;;;;;;;7.63;4.10;;;;;;;;;;5018064;28;20212;-63
2021/10/25 12:44:52;;;;;;;8.47;4.00;;;;;;;;;;5018223;28;20295;-63
2021/10/25 12:47:23;;;;;;;5.77;3.47;;;;;;;;;;5018289;28;20215;-63
2021/10/25 12:49:52;;;;;;;8.67;3.97;;;;;;;;;;5018161;28;20231;-63
2021/10/25 12:52:20;;;;;;;8.97;3.90;;;;;;;;;;5018258;28;20208;-63
2021/10/25 12:54:48;;;;;;;5.93;3.87;;;;;;;;;;5018379;28;20218;-64
2021/10/25 12:57:17;;;;;;;6.90;2.93;;;;;;;;;;5017964;28;20208;-63
2021/10/25 12:59:55;;;;;;;9.10;3.97;;;;;;;;;;5018050;28;20234;-63
2021/10/25 13:02:25;;;;;;;9.37;3.70;;;;;;;;;;5017827;28;20212;-63
2021/10/25 13:05:04;;;;;;;6.83;3.57;;;;;;;;;;5018016;28;20212;-63
2021/10/25 13:07:32;;;;;;;8.20;3.70;;;;;;;;;;5018160;28;20214;-63
2021/10/25 13:10:00;;;;;;;5.50;3.10;;;;;;;;;;5017909;28;20734;-63
2021/10/25 13:12:28;;;;;;;6.53;3.53;;;;;;;;;;5018079;28;20212;-62
2021/10/25 13:14:57;;;;;;;5.90;3.13;;;;;;;;;;5017947;28;20204;-63
2021/10/25 13:17:41;;;;;;;4.93;3.40;;;;;;;;;;5017498;28;20570;-63
2021/10/25 13:20:13;;;;;;;11.97;4.07;;;;;;;;;;5017761;28;20323;-63
2021/10/25 13:22:41;;;;;;;6.03;3.30;;;;;;;;;;5017543;28;20246;-63
2021/10/25 13:25:09;;;;;;;9.00;4.03;;;;;;;;;;5017398;28;20208;-63
2021/10/25 13:27:39;;;;;;;7.03;3.43;;;;;;;;;;5017609;28;20262;-63
2021/10/25 13:30:08;;;;;;;5.07;3.37;;;;;;;;;;5017321;28;20207;-63
2021/10/25 13:32:36;;;;;;;5.10;3.00;;;;;;;;;;5017117;28;20212;-63
2021/10/25 13:35:06;;;;;;;4.93;3.07;;;;;;;;;;5017448;28;20576;-63
2021/10/25 13:37:34;;;;;;;6.90;3.87;;;;;;;;;;5017161;28;20208;-64
2021/10/25 13:40:02;;;;;;;3.30;2.90;;;;;;;;;;5017289;28;20318;-63
2021/10/25 13:42:30;;;;;;;6.13;3.47;;;;;;;;;;5017564;28;20301;-64
2021/10/25 13:44:58;;;;;;;5.43;3.33;;;;;;;;;;5008747;28;20201;-65
2021/10/25 13:47:27;;;;;;;4.87;3.30;;;;;;;;;;5015207;28;20208;-64
2021/10/25 13:49:55;;;;;;;5.10;3.03;;;;;;;;;;5017291;28;20315;-64
2021/10/25 13:52:25;;;;;;;5.47;3.00;;;;;;;;;;5017336;28;20291;-64
2021/10/25 13:54:54;;;;;;;7.23;3.17;;;;;;;;;;5017535;28;20223;-64
2021/10/25 13:57:22;;;;;;;5.40;3.20;;;;;;;;;;5017203;28;20208;-64
2021/10/25 13:59:50;;;;;;;5.97;3.40;;;;;;;;;;5017150;28;20326;-64
2021/10/25 14:02:24;;;;;;;3.60;3.00;;;;;;;;;;5017074;28;20212;-64
2021/10/25 14:04:56;;;;;;;6.27;3.20;;;;;;;;;;5016926;28;20570;-64
2021/10/25 14:07:30;;;;;;;7.00;3.03;;;;;;;;;;5017044;28;20219;-64
2021/10/25 14:10:02;;;;;;;6.50;3.77;;;;;;;;;;5016914;28;20319;-64
2021/10/25 14:12:31;;;;;;;9.90;3.50;;;;;;;;;;5017518;28;20212;-63
2021/10/25 14:15:26;;;;;;;5.30;3.50;;;;;;;;;;5018063;28;20232;-63
2021/10/25 14:17:55;;;;;;;5.47;3.50;;;;;;;;;;5017847;28;20204;-64
2021/10/25 14:20:24;;;;;;;4.47;3.53;;;;;;;;;;5020838;28;20211;-63
2021/10/25 14:22:57;;;;;;;6.83;3.23;;;;;;;;;;5010446;28;20719;-63
2021/10/25 14:25:25;;;;;;;5.67;3.77;;;;;;;;;;5020979;28;20204;-64
2021/10/25 14:27:53;;;;;;;8.77;4.80;;;;;;;;;;5020805;28;20208;-63
2021/10/25 14:30:22;;;;;;;6.60;4.30;;;;;;;;;;5009086;28;20208;-64
2021/10/25 14:32:51;;;;;;;8.00;3.50;;;;;;;;;;5020262;28;20299;-63
2021/10/25 14:35:19;;;;;;;6.03;3.40;;;;;;;;;;5020788;28;20238;-63
2021/10/25 14:37:59;;;;;;;4.77;3.27;;;;;;;;;;5020170;28;20231;-64
2021/10/25 14:40:40;;;;;;;8.57;4.00;;;;;;;;;;5020476;28;20207;-63
2021/10/25 14:43:14;;;;;;;7.67;4.30;;;;;;;;;;5020717;28;20291;-65
2021/10/25 14:45:55;;;;;;;5.93;3.90;;;;;;;;;;5019040;28;20229;-64
2021/10/25 14:48:28;;;;;;;7.67;3.70;;;;;;;;;;5020361;28;20232;-65
2021/10/25 14:53:46;;;;;;;7.00;3.13;;;;;;;;;;5020448;28;20254;-63
2021/10/25 14:56:15;;;;;;;8.63;3.90;;;;;;;;;;5020376;28;20299;-63
2021/10/25 14:58:44;;;;;;;5.47;4.27;;;;;;;;;;5020088;28;20290;-64
2021/10/25 15:01:12;;;;;;;5.60;3.40;;;;;;;;;;5020074;28;20714;-63
2021/10/25 15:03:42;;;;;;;6.30;3.63;;;;;;;;;;5020180;28;20243;-63
2021/10/25 15:06:12;;;;;;;6.73;3.90;;;;;;;;;;5020052;28;20224;-62
2021/10/25 15:08:40;;;;;;;8.47;3.20;;;;;;;;;;5019894;28;20691;-62
2021/10/25 15:11:09;;;;;;;5.83;3.33;;;;;;;;;;5019914;28;20620;-62
2021/10/25 15:13:37;;;;;;;3.30;3.00;;;;;;;;;;5020113;28;20208;-63
2021/10/25 15:16:06;;;;;;;4.60;3.30;;;;;;;;;;5019801;28;20204;-63
2021/10/25 15:18:34;;;;;;;6.03;3.57;;;;;;;;;;5019957;28;20290;-63
2021/10/25 15:21:03;;;;;;;5.17;3.97;;;;;;;;;;5019613;28;20239;-64
2021/10/25 15:23:31;;;;;;;5.17;3.57;;;;;;;;;;5019843;28;20214;-64
2021/10/25 15:25:59;;;;;;;6.93;3.60;;;;;;;;;;5018988;28;20537;-62
2021/10/25 15:28:28;;;;;;;8.20;4.03;;;;;;;;;;5019519;28;20220;-62
2021/10/25 15:30:56;;;;;;;8.00;3.80;;;;;;;;;;5019421;28;20705;-63
2021/10/25 15:33:24;;;;;;;7.63;3.73;;;;;;;;;;5019289;28;20675;-63
2021/10/25 15:35:55;;;;;;;5.67;3.80;;;;;;;;;;5019714;28;20227;-62
2021/10/25 15:38:24;;;;;;;9.93;3.53;;;;;;;;;;5019552;28;20262;-64
2021/10/25 15:40:52;;;;;;;6.53;3.90;;;;;;;;;;5019520;28;20208;-63
2021/10/25 15:43:20;;;;;;;6.87;3.53;;;;;;;;;;5019522;28;20208;-62
2021/10/25 15:45:49;;;;;;;7.63;4.13;;;;;;;;;;5019381;28;20214;-63
2021/10/25 15:48:17;;;;;;;7.53;5.10;;;;;;;;;;5019099;28;20711;-62
2021/10/25 15:50:47;;;;;;;7.60;4.00;;;;;;;;;;5019352;28;20211;-62
2021/10/25 15:53:16;;;;;;;4.30;3.47;;;;;;;;;;5019111;28;20215;-62
2021/10/25 15:55:44;;;;;;;7.00;4.00;;;;;;;;;;5018847;28;20228;-62
2021/10/25 15:58:12;;;;;;;6.80;4.47;;;;;;;;;;5019059;28;20236;-62
2021/10/25 16:00:41;;;;;;;5.30;4.27;;;;;;;;;;5018998;28;20208;-62
2021/10/25 16:03:10;;;;;;;7.97;4.10;;;;;;;;;;5018943;28;20215;-63
2021/10/25 16:05:39;;;;;;;4.97;3.70;;;;;;;;;;5019060;28;20208;-62
2021/10/25 16:08:07;;;;;;;6.90;3.70;;;;;;;;;;5018900;28;20228;-64
2021/10/25 16:10:35;;;;;;;7.77;4.60;;;;;;;;;;5019032;28;20210;-62
2021/10/25 16:13:03;;;;;;;4.97;4.10;;;;;;;;;;5019008;28;20464;-63
2021/10/25 16:15:31;;;;;;;8.53;4.33;;;;;;;;;;5019015;28;20262;-64